Time;durP1;ratioP1;P1;durP2;ratioP2;P2;SDS_P1;SDS_P2;PMS_P1;PMS_P2;Temp;Humidity;BMP_temperature;BMP_pressure;BME280_temperature;BME280_humidity;BME280_pressure;Samples;Min_cycle;Max_cycle;Signal;HPM_P1;HPM_P2
2023/08/24 00:00:48;;;;;;;;;5.67;4.67;;;;;29.36;46.66;101326.03;5097789;27;46323;-73
2023/08/24 00:03:13;;;;;;;;;6.33;5.00;;;;;29.38;46.40;101326.66;5098207;27;45449;-73
2023/08/24 00:05:40;;;;;;;;;4.00;4.00;;;;;29.34;46.41;101312.88;5098406;27;45428;-73
2023/08/24 00:08:06;;;;;;;;;4.00;4.00;;;;;29.38;45.97;101315.94;5097985;27;45389;-73
2023/08/24 00:10:31;;;;;;;;;3.33;3.33;;;;;29.37;46.17;101309.75;5097859;27;47254;-73
2023/08/24 00:12:57;;;;;;;;;3.67;3.67;;;;;29.34;46.43;101306.69;5097823;27;45423;-73
2023/08/24 00:15:22;;;;;;;;;5.33;4.33;;;;;29.36;46.34;101307.28;5097715;27;45307;-73
2023/08/24 00:17:48;;;;;;;;;5.33;4.67;;;;;29.37;46.30;101309.75;5098060;27;45221;-73
2023/08/24 00:20:13;;;;;;;;;4.67;4.67;;;;;29.36;46.55;101305.41;5097608;27;45370;-73
2023/08/24 00:22:39;;;;;;;;;7.67;5.00;;;;;29.36;45.90;101305.41;5097799;27;45473;-73
2023/08/24 00:25:05;;;;;;;;;5.00;5.00;;;;;29.39;46.45;101299.63;5095764;27;45716;-73
2023/08/24 00:27:31;;;;;;;;;5.00;5.00;;;;;29.40;46.21;101289.72;5096614;27;45550;-73
2023/08/24 00:29:56;;;;;;;;;7.00;5.00;;;;;29.40;45.96;101279.00;5097222;27;47159;-73
2023/08/24 00:32:22;;;;;;;;;5.33;4.00;;;;;29.39;46.47;101277.38;5097461;27;45427;-73
2023/08/24 00:34:48;;;;;;;;;6.00;4.33;;;;;29.39;46.08;101270.16;5097692;27;45317;-73
2023/08/24 00:37:13;;;;;;;;;4.67;4.67;;;;;29.39;45.84;101255.91;5097544;27;45327;-73
2023/08/24 00:39:38;;;;;;;;;5.67;5.00;;;;;29.39;46.29;101263.97;5097348;27;48226;-72
2023/08/24 00:42:04;;;;;;;;;5.00;5.00;;;;;29.38;45.91;101254.31;5097372;27;45476;-73
2023/08/24 00:44:29;;;;;;;;;6.00;4.00;;;;;29.35;46.28;101249.38;5097247;27;45411;-73
2023/08/24 00:46:55;;;;;;;;;6.33;5.00;;;;;29.39;46.43;101253.25;5097361;27;45306;-73
2023/08/24 00:49:21;;;;;;;;;6.67;6.67;;;;;29.36;46.17;101259.03;5097396;27;45879;-73
2023/08/24 00:51:46;;;;;;;;;4.67;4.67;;;;;29.39;46.29;101254.06;5097405;27;45376;-73
2023/08/24 00:54:12;;;;;;;;;6.00;6.00;;;;;29.37;46.52;101250.78;5097423;27;45488;-73
2023/08/24 00:56:37;;;;;;;;;4.33;4.33;;;;;29.39;46.10;101253.25;5097456;27;45317;-73
2023/08/24 00:59:03;;;;;;;;;6.00;6.00;;;;;29.39;46.37;101245.19;5096701;27;46303;-73
2023/08/24 01:01:28;;;;;;;;;7.00;6.00;;;;;29.35;46.47;101239.47;5097279;27;45225;-73
2023/08/24 01:03:53;;;;;;;;;3.00;3.00;;;;;29.39;46.17;101239.84;5096136;27;45305;-73
2023/08/24 01:06:19;;;;;;;;;5.00;5.00;;;;;29.39;46.10;101237.16;5097330;27;45271;-73
2023/08/24 01:08:44;;;;;;;;;4.33;4.33;;;;;29.39;46.19;101231.81;5097041;27;45348;-73
2023/08/24 01:11:32;;;;;;;;;6.00;4.33;;;;;29.39;46.32;101234.47;5097024;27;45388;-73
2023/08/24 01:14:22;;;;;;;;;5.00;4.00;;;;;29.39;46.09;101226.44;5097281;27;45376;-73
2023/08/24 01:16:50;;;;;;;;;4.00;4.00;;;;;29.34;46.33;101218.25;5097120;27;45169;-73
2023/08/24 01:19:43;;;;;;;;;6.00;6.00;;;;;29.37;46.42;101224.00;5096561;27;47416;-73
2023/08/24 01:22:26;;;;;;;;;4.67;3.00;;;;;29.39;45.96;101227.25;5096860;27;45367;-73
2023/08/24 01:25:00;;;;;;;;;4.67;4.67;;;;;29.39;46.18;101221.09;5097015;27;45304;-73
2023/08/24 01:27:27;;;;;;;;;6.00;5.00;;;;;29.32;46.22;101202.41;5096562;27;45588;-73
2023/08/24 01:29:56;;;;;;;;;5.00;4.00;;;;;29.39;46.42;101215.72;5096616;27;45256;-73
2023/08/24 01:32:22;;;;;;;;;6.33;6.00;;;;;29.34;46.01;101208.34;5096581;27;45385;-73
2023/08/24 01:34:48;;;;;;;;;4.67;4.67;;;;;29.40;46.14;101218.19;5095333;27;45390;-73
2023/08/24 01:37:13;;;;;;;;;4.00;4.00;;;;;29.40;46.22;101212.84;5096719;27;45349;-73
2023/08/24 01:39:41;;;;;;;;;4.33;4.33;;;;;29.40;46.08;101217.38;5096674;27;45407;-73
2023/08/24 01:42:11;;;;;;;;;5.00;4.00;;;;;29.40;46.14;101215.53;5096123;27;45369;-73
2023/08/24 01:44:40;;;;;;;;;5.67;5.67;;;;;29.40;46.05;101220.88;5096613;27;45347;-73
2023/08/24 01:47:11;;;;;;;;;5.00;5.00;;;;;29.35;46.08;101212.69;5096307;27;45351;-73
2023/08/24 01:49:37;;;;;;;;;5.00;5.00;;;;;29.40;46.18;101214.69;5095149;27;46017;-73
2023/08/24 01:52:04;;;;;;;;;6.33;6.00;;;;;29.39;46.35;101216.53;5096275;27;45386;-73
2023/08/24 01:54:31;;;;;;;;;6.00;5.00;;;;;29.40;46.23;101225.41;5096568;27;45343;-73
2023/08/24 01:56:56;;;;;;;;;6.00;5.00;;;;;29.38;45.83;101228.28;5096289;27;45322;-73
2023/08/24 01:59:21;;;;;;;;;7.67;5.00;;;;;29.32;45.91;101207.75;5096080;27;46149;-73
2023/08/24 02:01:47;;;;;;;;;6.00;5.00;;;;;29.32;45.95;101210.44;5096190;27;48603;-73
2023/08/24 02:04:12;;;;;;;;;6.33;6.33;;;;;29.39;46.04;101219.22;5096501;27;45470;-73
2023/08/24 02:06:37;;;;;;;;;7.33;6.00;;;;;29.38;46.17;101216.78;5096446;27;45345;-73
2023/08/24 02:09:03;;;;;;;;;7.33;6.00;;;;;29.38;45.90;101211.41;5096138;27;47220;-73
2023/08/24 02:11:28;;;;;;;;;5.67;5.33;;;;;29.37;45.98;101213.28;5095973;27;45315;-73
2023/08/24 02:13:53;;;;;;;;;5.67;5.00;;;;;29.27;45.92;101194.22;5096465;27;45222;-73
2023/08/24 02:16:18;;;;;;;;;3.67;3.67;;;;;29.37;45.97;101210.59;5096401;27;45471;-73
2023/08/24 02:18:45;;;;;;;;;4.67;4.67;;;;;29.36;45.72;101208.94;5096022;27;47169;-73
2023/08/24 02:21:11;;;;;;;;;5.67;5.67;;;;;29.39;45.94;101208.50;5096086;27;45352;-73
2023/08/24 02:23:37;;;;;;;;;7.00;5.00;;;;;29.38;45.90;101214.91;5099931;27;45732;-73
2023/08/24 02:26:04;;;;;;;;;8.67;4.67;;;;;29.37;45.87;101207.09;5099321;27;45724;-73
2023/08/24 02:28:29;;;;;;;;;4.67;4.00;;;;;29.39;46.01;101199.66;5099647;27;47388;-73
2023/08/24 02:30:54;;;;;;;;;7.00;7.00;;;;;29.35;45.59;101201.13;5099483;27;45394;-73
2023/08/24 02:33:20;;;;;;;;;2.00;2.00;;;;;29.40;45.87;101198.63;5099661;27;45414;-72
2023/08/24 02:35:48;;;;;;;;;5.33;4.00;;;;;29.31;45.95;101182.00;5099613;27;45334;-73
2023/08/24 02:38:13;;;;;;;;;6.67;5.00;;;;;29.40;45.80;101191.41;5099586;27;46216;-73
2023/08/24 02:40:38;;;;;;;;;5.33;4.00;;;;;29.40;45.96;101190.56;5098894;27;45228;-73
2023/08/24 02:43:04;;;;;;;;;5.67;5.67;;;;;29.38;46.02;101174.69;5099476;27;45219;-73
2023/08/24 02:45:29;;;;;;;;;6.67;5.67;;;;;29.38;45.55;101171.22;5099395;27;45253;-73
2023/08/24 02:47:54;;;;;;;;;8.00;7.00;;;;;29.14;45.92;101139.72;5099402;27;45513;-73
2023/08/24 02:50:20;;;;;;;;;6.33;4.67;;;;;29.38;45.80;101173.91;5099359;27;45308;-73
2023/08/24 02:52:45;;;;;;;;;6.00;5.00;;;;;29.37;45.82;101169.56;5099601;27;45235;-73
2023/08/24 02:55:11;;;;;;;;;6.00;6.00;;;;;29.31;45.81;101159.72;5099024;27;45356;-73
2023/08/24 02:57:36;;;;;;;;;7.33;6.00;;;;;29.38;45.90;101168.53;5099118;27;46307;-73
2023/08/24 03:00:03;;;;;;;;;5.33;5.00;;;;;29.36;45.88;101168.75;5099146;27;45299;-73
2023/08/24 03:02:29;;;;;;;;;7.67;6.67;;;;;29.33;45.97;101163.81;5097841;27;45406;-73
2023/08/24 03:04:55;;;;;;;;;4.00;4.00;;;;;29.36;45.90;101163.38;5099093;27;45329;-73
2023/08/24 03:07:20;;;;;;;;;5.33;4.33;;;;;29.37;45.74;101154.31;5099130;27;46030;-73
2023/08/24 03:09:46;;;;;;;;;6.00;4.33;;;;;29.37;45.83;101153.50;5098597;27;45365;-73
2023/08/24 03:12:12;;;;;;;;;6.00;6.00;;;;;29.37;45.62;101148.13;5099116;27;45408;-73
2023/08/24 03:14:37;;;;;;;;;8.00;5.67;;;;;29.37;45.61;101150.81;5099158;27;45367;-73
2023/08/24 03:17:04;;;;;;;;;6.00;6.00;;;;;29.36;45.58;101141.94;5098901;27;45327;-73
2023/08/24 03:19:29;;;;;;;;;7.67;5.00;;;;;29.36;45.68;101141.94;5098954;27;45284;-73
2023/08/24 03:21:55;;;;;;;;;4.67;4.67;;;;;29.36;45.98;101139.28;5098398;27;45369;-73
2023/08/24 03:24:20;;;;;;;;;5.00;5.00;;;;;29.36;45.95;101141.94;5099046;27;45288;-73
2023/08/24 03:26:45;;;;;;;;;8.00;5.00;;;;;29.36;45.77;101133.91;5098725;27;46031;-73
2023/08/24 03:29:11;;;;;;;;;4.67;4.67;;;;;29.27;46.05;101116.50;5098729;27;45500;-73
2023/08/24 03:31:36;;;;;;;;;6.00;6.00;;;;;29.37;45.78;101130.19;5098844;27;45416;-73
2023/08/24 03:34:03;;;;;;;;;5.00;5.00;;;;;29.30;45.80;101110.72;5097393;27;45639;-73
2023/08/24 03:36:28;;;;;;;;;5.67;5.67;;;;;29.36;45.70;101123.19;5098234;27;46423;-73
2023/08/24 03:38:54;;;;;;;;;4.00;4.00;;;;;29.37;45.70;101118.66;5098538;27;45351;-73
2023/08/24 03:41:19;;;;;;;;;6.33;6.00;;;;;29.36;45.83;101112.47;5098592;27;45365;-73
2023/08/24 03:43:44;;;;;;;;;5.00;5.00;;;;;29.36;45.97;101107.13;5098553;27;45423;-73
2023/08/24 03:46:10;;;;;;;;;6.00;5.67;;;;;29.37;45.79;101105.25;5096914;27;47033;-73
2023/08/24 03:48:35;;;;;;;;;6.00;5.33;;;;;29.38;45.77;101106.91;5098423;27;45493;-73
2023/08/24 03:51:01;;;;;;;;;5.67;5.67;;;;;29.37;45.82;101099.91;5098106;27;45383;-73
2023/08/24 03:53:26;;;;;;;;;5.33;5.33;;;;;29.36;45.79;101098.25;5098452;27;45336;-73
2023/08/24 03:55:52;;;;;;;;;3.67;3.67;;;;;29.36;45.83;101095.56;5098276;27;46276;-73
2023/08/24 03:58:18;;;;;;;;;5.67;5.00;;;;;29.37;45.88;101100.72;5098292;27;45380;-73
2023/08/24 04:00:44;;;;;;;;;5.00;4.33;;;;;29.33;45.63;101088.78;5098150;27;45202;-73
2023/08/24 04:03:09;;;;;;;;;8.00;6.67;;;;;29.33;45.69;101082.66;5098432;27;45471;-73
2023/08/24 04:05:34;;;;;;;;;4.67;4.67;;;;;29.37;45.68;101086.50;5096364;27;47169;-73
2023/08/24 04:08:00;;;;;;;;;5.00;5.00;;;;;29.33;45.66;101086.13;5098022;27;45355;-73
2023/08/24 04:10:27;;;;;;;;;5.33;5.00;;;;;29.38;46.04;101090.81;5098068;27;45175;-73
2023/08/24 04:12:52;;;;;;;;;5.00;4.00;;;;;29.38;45.64;101085.47;5098268;27;45422;-73
2023/08/24 04:15:18;;;;;;;;;6.33;6.33;;;;;29.37;45.83;101081.97;5097842;27;45305;-73
2023/08/24 04:17:43;;;;;;;;;6.00;5.33;;;;;29.38;45.75;101078.22;5098063;27;45497;-73
2023/08/24 04:20:09;;;;;;;;;4.00;4.00;;;;;29.37;45.76;101076.59;5097600;27;45394;-73
2023/08/24 04:22:35;;;;;;;;;5.00;4.67;;;;;29.38;45.57;101072.06;5097971;27;45461;-73
2023/08/24 04:25:00;;;;;;;;;5.00;5.00;;;;;29.38;45.82;101066.72;5097606;27;46051;-73
2023/08/24 04:27:26;;;;;;;;;6.00;5.00;;;;;29.37;45.78;101073.94;5097682;27;45452;-73
2023/08/24 04:29:52;;;;;;;;;5.67;4.00;;;;;29.36;45.96;101071.44;5097882;27;45292;-73
2023/08/24 04:32:17;;;;;;;;;6.00;6.00;;;;;29.38;45.89;101074.75;5097843;27;45305;-73
2023/08/24 04:34:42;;;;;;;;;5.00;5.00;;;;;29.37;45.70;101073.94;5097173;27;46190;-73
2023/08/24 04:37:08;;;;;;;;;7.00;5.00;;;;;29.38;45.76;101080.09;5097667;27;45214;-72
2023/08/24 04:39:33;;;;;;;;;6.00;5.33;;;;;29.37;45.67;101079.28;5097696;27;45223;-73
2023/08/24 04:41:59;;;;;;;;;4.33;4.33;;;;;29.33;45.46;101072.72;5097570;27;45256;-72
2023/08/24 04:44:24;;;;;;;;;4.67;4.67;;;;;29.37;45.99;101083.81;5097151;27;45536;-74
2023/08/24 04:46:49;;;;;;;;;5.33;5.33;;;;;29.38;45.73;101082.78;5097335;27;45428;-73
2023/08/24 04:49:15;;;;;;;;;4.33;4.33;;;;;29.38;45.77;101082.78;5097262;27;45340;-73
2023/08/24 04:51:40;;;;;;;;;4.67;4.67;;;;;29.38;45.81;101086.25;5097464;27;45322;-73
2023/08/24 04:54:06;;;;;;;;;5.33;5.33;;;;;29.33;45.71;101078.06;5097387;27;46991;-73
2023/08/24 04:56:31;;;;;;;;;5.00;5.00;;;;;29.38;45.69;101088.16;5097232;27;45358;-73
2023/08/24 04:58:57;;;;;;;;;6.00;6.00;;;;;29.39;45.55;101097.81;5097396;27;45325;-73
2023/08/24 05:01:31;;;;;;;;;6.00;6.00;;;;;29.38;45.80;101099.66;5097443;27;45434;-73
2023/08/24 05:03:56;;;;;;;;;5.00;5.00;;;;;29.31;45.53;101080.16;5096704;27;46214;-73
2023/08/24 05:06:22;;;;;;;;;5.00;4.33;;;;;29.37;45.28;101081.13;5097189;27;45354;-73
2023/08/24 05:08:47;;;;;;;;;6.33;6.33;;;;;29.37;45.42;101090.00;5097221;27;45312;-73
2023/08/24 05:11:20;;;;;;;;;5.00;5.00;;;;;29.37;45.42;101094.53;5097175;27;45363;-73
2023/08/24 05:13:45;;;;;;;;;4.00;4.00;;;;;29.31;45.58;101082.84;5097148;27;46009;-73
2023/08/24 05:16:12;;;;;;;;;5.67;5.33;;;;;29.36;45.49;101084.84;5096926;27;45366;-73
2023/08/24 05:18:38;;;;;;;;;8.00;6.67;;;;;29.28;45.55;101072.56;5096752;27;45486;-73
2023/08/24 05:21:03;;;;;;;;;3.67;3.67;;;;;29.33;45.45;101077.28;5096690;27;45320;-73
2023/08/24 05:23:30;;;;;;;;;7.67;6.00;;;;;29.29;45.08;101061.66;5096619;27;45376;-73
2023/08/24 05:25:57;;;;;;;;;7.00;6.00;;;;;29.27;44.33;101070.97;5096870;27;45482;-74
2023/08/24 05:28:22;;;;;;;;;7.67;6.67;;;;;29.14;44.69;101071.94;5096841;27;45319;-73
2023/08/24 05:30:48;;;;;;;;;6.00;6.00;;;;;29.04;44.56;101083.13;5096568;27;52376;-73
2023/08/24 05:33:13;;;;;;;;;7.67;7.67;;;;;28.93;45.11;101084.69;5096273;27;45301;-74
2023/08/24 05:35:38;;;;;;;;;9.67;8.00;;;;;28.73;45.29;101080.34;5096907;27;45521;-73
2023/08/24 05:38:04;;;;;;;;;7.33;7.33;;;;;28.74;45.28;101106.91;5093134;27;45376;-74
2023/08/24 05:40:29;;;;;;;;;8.00;8.00;;;;;28.67;45.14;101130.25;5091890;27;45347;-74
2023/08/24 05:42:54;;;;;;;;;7.33;6.67;;;;;28.61;44.83;101153.34;5090541;27;46096;-73
2023/08/24 05:45:20;;;;;;;;;8.00;8.00;;;;;28.56;44.93;101176.44;5095960;27;45484;-74
2023/08/24 05:47:45;;;;;;;;;7.00;7.00;;;;;28.52;45.65;101200.16;5104092;27;45440;-73
2023/08/24 05:50:11;;;;;;;;;6.67;6.33;;;;;28.37;45.44;101190.53;5106637;27;45316;-74
2023/08/24 05:52:37;;;;;;;;;8.00;8.00;;;;;28.34;45.42;101187.47;5104989;27;46649;-73
2023/08/24 05:55:02;;;;;;;;;7.33;7.33;;;;;28.37;45.39;101177.16;5106709;27;45351;-74
2023/08/24 05:57:28;;;;;;;;;7.33;7.00;;;;;28.31;45.61;101156.63;5100660;27;45660;-73
2023/08/24 05:59:53;;;;;;;;;8.00;6.67;;;;;28.27;45.80;101150.03;5095282;27;49108;-73
2023/08/24 06:02:18;;;;;;;;;9.00;9.00;;;;;28.25;46.31;101136.06;5095040;27;47458;-72
2023/08/24 06:04:44;;;;;;;;;8.00;7.00;;;;;28.26;46.29;101159.91;5095638;27;45363;-73
2023/08/24 06:07:09;;;;;;;;;9.00;7.00;;;;;28.17;46.19;101140.66;5095680;27;45327;-73
2023/08/24 06:09:34;;;;;;;;;7.00;6.00;;;;;28.29;45.52;101142.63;5095761;27;45359;-73
2023/08/24 06:12:00;;;;;;;;;8.67;7.67;;;;;28.25;45.87;101107.47;5095912;27;46901;-72
2023/08/24 06:14:25;;;;;;;;;10.00;8.00;;;;;28.31;45.87;101119.16;5095738;27;45466;-72
2023/08/24 06:16:53;;;;;;;;;7.67;7.67;;;;;28.28;46.86;101205.22;5095621;27;46209;-72
2023/08/24 06:19:18;;;;;;;;;6.67;6.67;;;;;28.27;46.75;101319.41;5096167;27;45351;-74
2023/08/24 06:21:44;;;;;;;;;8.67;8.00;;;;;28.27;47.24;101327.44;5095849;27;45322;-73
2023/08/24 06:24:09;;;;;;;;;9.67;8.33;;;;;28.26;47.38;101363.25;5096191;27;45263;-73
2023/08/24 06:26:35;;;;;;;;;9.00;6.67;;;;;28.26;48.23;101422.09;5096143;27;45330;-73
2023/08/24 06:29:00;;;;;;;;;7.33;7.33;;;;;28.28;48.07;101440.66;5096142;27;45565;-73
2023/08/24 06:31:25;;;;;;;;;8.00;8.00;;;;;28.33;48.09;101453.38;5095696;27;45430;-72
2023/08/24 06:33:51;;;;;;;;;9.00;7.33;;;;;28.38;47.71;101478.50;5095729;27;45439;-74
2023/08/24 06:36:16;;;;;;;;;8.00;8.00;;;;;28.46;47.69;101432.00;5096053;27;45314;-74
2023/08/24 06:38:42;;;;;;;;;7.33;7.00;;;;;28.47;47.72;101438.16;5095972;27;45580;-74
2023/08/24 06:41:11;;;;;;;;;7.00;7.00;;;;;28.47;47.22;101331.13;5095099;27;58452;-74
2023/08/24 06:43:38;;;;;;;;;9.00;7.00;;;;;28.60;47.53;101300.75;5095921;27;45402;-75
2023/08/24 06:46:04;;;;;;;;;11.00;7.00;;;;;28.57;47.22;101226.28;5095194;27;45309;-74
2023/08/24 06:48:29;;;;;;;;;10.67;7.67;;;;;28.67;47.24;101175.75;5095892;27;45466;-74
2023/08/24 06:50:55;;;;;;;;;10.33;9.00;;;;;28.63;47.13;101137.88;5095733;27;45264;-74
2023/08/24 06:53:20;;;;;;;;;10.33;9.00;;;;;28.76;47.21;101108.53;5095604;27;47624;-74
2023/08/24 06:55:45;;;;;;;;;8.67;8.67;;;;;28.78;46.95;101061.75;5095918;27;45304;-74
2023/08/24 06:58:11;;;;;;;;;9.67;7.67;;;;;28.82;47.25;101048.75;5095830;27;45304;-74
2023/08/24 07:00:36;;;;;;;;;11.33;9.33;;;;;28.75;46.80;101022.06;5094676;27;45299;-74
2023/08/24 07:03:01;;;;;;;;;9.33;8.67;;;;;28.81;46.71;101028.34;5095678;27;45317;-73
2023/08/24 07:05:27;;;;;;;;;11.00;9.00;;;;;28.90;46.67;101024.34;5095560;27;45386;-73
2023/08/24 07:07:53;;;;;;;;;8.67;8.00;;;;;28.90;46.89;101019.00;5096569;27;45204;-74
2023/08/24 07:10:19;;;;;;;;;8.33;8.00;;;;;28.95;46.46;101026.38;5098735;27;45455;-74
2023/08/24 07:12:45;;;;;;;;;12.00;11.00;;;;;28.98;46.85;101027.78;5098840;27;45355;-74
2023/08/24 07:15:11;;;;;;;;;7.67;7.00;;;;;29.01;46.67;101024.66;5098841;27;45395;-74
2023/08/24 07:17:36;;;;;;;;;7.67;7.67;;;;;28.91;46.77;101003.75;5099169;27;45407;-74
2023/08/24 07:20:05;;;;;;;;;7.67;7.67;;;;;29.01;46.38;101021.97;5098664;27;46170;-74
2023/08/24 07:22:30;;;;;;;;;11.00;8.33;;;;;29.04;46.95;101027.69;5098719;27;45350;-74
2023/08/24 07:24:56;;;;;;;;;8.00;8.00;;;;;29.03;46.66;101020.72;5098861;27;45307;-74
2023/08/24 07:27:21;;;;;;;;;8.33;8.33;;;;;29.07;46.33;101029.94;5098893;27;45474;-74
2023/08/24 07:29:47;;;;;;;;;9.00;8.00;;;;;29.06;46.56;101060.44;5098203;27;46188;-73
2023/08/24 07:32:12;;;;;;;;;12.33;7.33;;;;;29.09;46.54;101085.16;5098651;27;45340;-74
2023/08/24 07:34:38;;;;;;;;;7.00;7.00;;;;;29.05;46.68;101074.03;5098601;27;45460;-74
2023/08/24 07:37:03;;;;;;;;;9.33;9.00;;;;;29.12;46.62;101093.56;5098522;27;45517;-75
2023/08/24 07:39:28;;;;;;;;;6.00;6.00;;;;;29.14;46.47;101101.41;5098539;27;46303;-74
2023/08/24 07:41:54;;;;;;;;;8.67;7.67;;;;;29.14;46.45;101101.41;5098633;27;45505;-73
2023/08/24 07:44:19;;;;;;;;;7.33;7.33;;;;;29.14;46.74;101096.03;5097165;27;45444;-74
2023/08/24 07:46:45;;;;;;;;;12.33;10.00;;;;;29.16;46.44;101097.47;5098326;27;45370;-74
2023/08/24 07:49:10;;;;;;;;;9.00;9.00;;;;;29.18;46.56;101099.91;5098296;27;47193;-74
2023/08/24 07:51:36;;;;;;;;;7.33;7.00;;;;;29.13;46.42;101097.91;5098247;27;46010;-75
2023/08/24 07:54:01;;;;;;;;;8.00;8.00;;;;;29.20;46.20;101105.06;5098517;27;45566;-74
2023/08/24 07:56:27;;;;;;;;;7.67;7.33;;;;;29.21;46.58;101101.31;5098435;27;45420;-76
2023/08/24 07:58:52;;;;;;;;;9.00;8.00;;;;;29.16;46.60;101070.66;5097863;27;46335;-75
2023/08/24 08:01:17;;;;;;;;;7.33;7.33;;;;;29.20;46.75;101097.81;5098132;27;45405;-75
2023/08/24 08:03:43;;;;;;;;;5.67;5.67;;;;;29.22;46.46;101114.50;5098297;27;45311;-76
2023/08/24 08:06:08;;;;;;;;;7.67;5.67;;;;;29.25;46.46;101132.00;5098461;27;45363;-75
2023/08/24 08:08:33;;;;;;;;;8.00;8.00;;;;;29.23;46.46;101147.44;5098031;27;46876;-75
2023/08/24 08:11:00;;;;;;;;;8.00;8.00;;;;;29.25;46.75;101148.06;5097265;27;45324;-75
2023/08/24 08:13:27;;;;;;;;;9.00;8.00;;;;;29.26;47.14;101125.56;5097833;27;45348;-75
2023/08/24 08:15:53;;;;;;;;;9.33;8.00;;;;;29.28;46.64;101134.19;5098145;27;45419;-75
2023/08/24 08:18:18;;;;;;;;;9.33;7.00;;;;;29.28;46.49;101124.31;5097945;27;46238;-75
2023/08/24 08:20:43;;;;;;;;;8.00;7.67;;;;;29.29;46.80;101117.91;5097036;27;45327;-75
2023/08/24 08:23:09;;;;;;;;;5.67;5.67;;;;;29.23;46.47;101083.97;5098141;27;45343;-75
2023/08/24 08:25:34;;;;;;;;;9.00;7.00;;;;;29.33;46.82;101090.69;5098093;27;45473;-74
2023/08/24 08:27:59;;;;;;;;;8.00;6.33;;;;;29.29;46.45;101071.53;5097516;27;45991;-74
2023/08/24 08:30:25;;;;;;;;;5.00;5.00;;;;;29.32;46.49;101072.97;5097696;27;45367;-74
2023/08/24 08:32:54;;;;;;;;;8.00;6.67;;;;;29.26;46.62;101063.94;5097760;27;45727;-74
2023/08/24 08:35:21;;;;;;;;;7.33;7.33;;;;;29.36;46.45;101099.06;5097912;27;45287;-74
2023/08/24 08:37:49;;;;;;;;;3.67;3.00;;;;;29.36;46.52;101128.56;5097721;27;46286;-74
2023/08/24 08:40:15;;;;;;;;;6.33;6.33;;;;;29.34;46.66;101162.81;5097452;27;45399;-75
2023/08/24 08:42:40;;;;;;;;;7.00;7.00;;;;;29.31;46.59;101181.16;5097338;27;45613;-74
2023/08/24 08:45:09;;;;;;;;;8.00;5.00;;;;;29.37;46.62;101250.78;5097474;27;45501;-74
2023/08/24 08:47:34;;;;;;;;;8.00;7.00;;;;;29.35;46.34;101317.19;5097608;27;45311;-74
2023/08/24 08:50:02;;;;;;;;;6.33;6.33;;;;;29.33;46.14;101284.41;5097327;27;45404;-74
2023/08/24 08:52:28;;;;;;;;;6.33;6.33;;;;;29.31;46.93;101240.94;5097509;27;45347;-75
2023/08/24 08:54:53;;;;;;;;;8.33;7.33;;;;;29.35;46.76;101238.66;5097554;27;45575;-74
2023/08/24 08:57:21;;;;;;;;;7.67;7.33;;;;;29.37;46.53;101205.25;5096899;27;46081;-74
2023/08/24 08:59:49;;;;;;;;;7.00;7.00;;;;;29.38;46.45;101177.38;5097270;27;45490;-75
2023/08/24 09:02:18;;;;;;;;;7.00;7.00;;;;;29.25;46.55;101146.19;5097232;27;45358;-75
2023/08/24 09:04:44;;;;;;;;;6.33;6.33;;;;;29.37;46.32;101172.25;5097340;27;45384;-75
2023/08/24 09:07:12;;;;;;;;;7.67;7.67;;;;;29.37;46.65;101188.34;5096897;27;45483;-74
2023/08/24 09:09:38;;;;;;;;;6.00;6.00;;;;;29.37;46.58;101193.69;5097122;27;45304;-74
2023/08/24 09:12:05;;;;;;;;;5.67;5.67;;;;;29.36;46.25;101189.38;5096557;27;45363;-74
2023/08/24 09:14:31;;;;;;;;;10.00;7.33;;;;;29.32;46.68;101175.59;5096988;27;45226;-74
2023/08/24 09:16:56;;;;;;;;;7.00;7.00;;;;;29.34;46.45;101186.09;5096754;27;51976;-74
2023/08/24 09:19:29;;;;;;;;;5.33;5.33;;;;;29.36;46.53;101192.03;5096777;27;45481;-74
2023/08/24 09:21:57;;;;;;;;;5.00;5.00;;;;;29.35;46.81;101188.56;5096991;27;45364;-75
2023/08/24 09:24:33;;;;;;;;;6.33;5.00;;;;;29.34;46.66;101196.81;5096639;27;45348;-74
2023/08/24 09:27:03;;;;;;;;;8.33;6.00;;;;;29.32;46.53;101180.13;5096749;27;47353;-74
2023/08/24 09:29:36;;;;;;;;;8.33;8.00;;;;;29.36;46.46;101174.09;5096703;27;45445;-74
2023/08/24 09:32:02;;;;;;;;;6.33;5.00;;;;;29.35;46.76;101180.53;5095669;27;45356;-74
2023/08/24 09:34:27;;;;;;;;;6.00;6.00;;;;;29.31;46.44;101128.41;5096780;27;47477;-74
2023/08/24 09:36:53;;;;;;;;;6.00;6.00;;;;;29.35;46.74;101118.06;5096892;27;46033;-74
2023/08/24 09:39:19;;;;;;;;;9.33;7.00;;;;;29.35;46.28;101118.06;5096249;27;45478;-74
2023/08/24 09:41:47;;;;;;;;;6.00;6.00;;;;;29.34;46.82;101132.50;5096651;27;45409;-74
2023/08/24 09:44:12;;;;;;;;;7.33;5.33;;;;;29.31;46.63;101136.44;5096776;27;45438;-74
2023/08/24 09:46:41;;;;;;;;;5.33;5.33;;;;;29.36;46.70;101141.13;5096121;27;45327;-74
2023/08/24 09:49:08;;;;;;;;;5.00;5.00;;;;;29.35;46.64;101123.44;5096525;27;45467;-74
2023/08/24 09:51:35;;;;;;;;;7.00;7.00;;;;;29.33;46.75;101099.50;5096628;27;45358;-74
2023/08/24 09:54:06;;;;;;;;;3.00;3.00;;;;;29.32;46.20;101105.94;5096180;27;45317;-74
2023/08/24 09:56:43;;;;;;;;;9.00;6.00;;;;;29.34;46.75;101122.59;5096337;27;46095;-74
2023/08/24 09:59:21;;;;;;;;;5.33;5.33;;;;;29.35;46.71;101118.06;5096085;27;45282;-75
2023/08/24 10:01:49;;;;;;;;;5.67;5.67;;;;;29.32;46.67;101087.19;5096485;27;45306;-75
2023/08/24 10:04:16;;;;;;;;;6.00;6.00;;;;;29.31;46.64;101092.75;5096318;27;45343;-74
2023/08/24 10:06:44;;;;;;;;;4.67;4.67;;;;;29.35;46.38;101102.00;5096240;27;46169;-74
2023/08/24 10:09:18;;;;;;;;;6.33;5.33;;;;;29.35;46.12;101102.00;5095879;27;45388;-74
2023/08/24 10:11:52;;;;;;;;;4.00;4.00;;;;;29.36;46.20;101098.25;5096383;27;45407;-74
2023/08/24 10:14:31;;;;;;;;;6.00;5.00;;;;;29.36;46.76;101108.97;5096427;27;45246;-75
2023/08/24 10:16:58;;;;;;;;;9.33;6.33;;;;;29.35;46.41;101113.53;5095980;27;46584;-74
2023/08/24 10:19:25;;;;;;;;;5.33;5.33;;;;;29.35;46.38;101116.22;5095803;27;45408;-74
2023/08/24 10:21:53;;;;;;;;;7.67;6.33;;;;;29.36;46.41;101114.31;5096122;27;45299;-74
2023/08/24 10:24:21;;;;;;;;;5.00;5.00;;;;;29.34;46.39;101100.34;5095850;27;45301;-74
2023/08/24 10:26:47;;;;;;;;;6.33;6.33;;;;;29.36;46.52;101098.25;5095946;27;47176;-75
2023/08/24 10:29:13;;;;;;;;;4.67;4.67;;;;;29.31;46.64;101066.78;5095991;27;45442;-73
2023/08/24 10:31:40;;;;;;;;;6.00;6.00;;;;;29.35;46.57;101080.56;5096210;27;45463;-74
2023/08/24 10:34:07;;;;;;;;;4.00;4.00;;;;;29.31;46.63;101080.16;5095694;27;45430;-74
2023/08/24 10:36:34;;;;;;;;;5.67;5.67;;;;;29.36;46.53;101090.22;5095826;27;46850;-75
2023/08/24 10:39:06;;;;;;;;;8.00;7.00;;;;;29.35;46.07;101085.91;5095538;27;45289;-74
2023/08/24 10:41:49;;;;;;;;;5.33;4.33;;;;;29.39;46.50;101077.19;5095918;27;45310;-74
2023/08/24 10:44:22;;;;;;;;;5.67;5.67;;;;;29.33;46.46;101071.94;5099034;27;45381;-74
2023/08/24 10:47:17;;;;;;;;;5.00;5.00;;;;;29.35;46.46;101072.50;5099151;27;46207;-74
2023/08/24 10:49:44;;;;;;;;;7.00;5.67;;;;;29.40;46.67;101081.53;5099259;27;45441;-74
2023/08/24 10:52:37;;;;;;;;;5.00;5.00;;;;;29.41;46.36;101090.34;5099020;27;45320;-73
2023/08/24 10:55:04;;;;;;;;;6.33;6.33;;;;;29.43;46.42;101112.41;5099270;27;45430;-75
2023/08/24 10:57:38;;;;;;;;;5.00;5.00;;;;;29.43;46.46;101130.34;5099097;27;46987;-75
2023/08/24 11:00:08;;;;;;;;;7.33;6.00;;;;;29.44;46.30;101132.78;5099103;27;45334;-74
2023/08/24 11:02:43;;;;;;;;;4.50;4.50;;;;;29.44;46.30;101123.94;5099149;27;45268;-73
2023/08/24 11:05:22;;;;;;;;;5.67;5.67;;;;;29.45;46.54;101109.50;5099125;27;45308;-75
2023/08/24 11:07:51;;;;;;;;;3.00;3.00;;;;;29.46;46.01;101122.66;5098654;27;46093;-73
2023/08/24 11:10:17;;;;;;;;;4.33;4.00;;;;;29.44;46.16;101124.75;5098983;27;45382;-74
2023/08/24 11:13:04;;;;;;;;;6.00;6.00;;;;;29.48;46.25;101134.00;5099066;27;45300;-74
2023/08/24 11:15:34;;;;;;;;;6.67;5.00;;;;;29.45;46.28;101125.56;5099142;27;45416;-74
2023/08/24 11:18:18;;;;;;;;;6.00;4.67;;;;;29.49;46.15;101156.22;5098846;27;46292;-74
2023/08/24 11:20:44;;;;;;;;;5.33;5.00;;;;;29.47;45.97;101161.84;5098272;27;45443;-75
2023/08/24 11:23:11;;;;;;;;;4.00;4.00;;;;;29.45;46.15;101141.66;5098837;27;45651;-74